»·PEaware :: N4A KMCC-KFLG

N4A :: KMCC-KFLG

FLIGHT INFORMATION

Flight Status: Arrived
Operator: Privately registered:
United States
More flights under this callsign
Pilot: Alec D. (17934)
Aircraft: CESSNA 510 CITATION MUSTANG
(C510)
More flights by this aircraft type
Origin: KMCC McClellan
United States
Destination: KFLG Flagstaff Pulliam
United States
More flights between these airports :: More routes between these airports
Route: +LIDAT J92 BLD J86 PGS V291 FLG
File this flight plan on PilotEdge
Remarks:
Altitude:
(Current/Filed)
35,000ft
Speed:
(Current/Filed)
330kts
Departed: 16-Mar-18 09:38 AM
Arrived: 16-Mar-18 11:20 AM
Distance/Time
Traveled:
512nm/1:42
Distance/Time
To Go:
Arrived

Flight Plot

Page will automatically refresh every two minutes.

Flight plan parsing failed; only flown route is shown


Map Options




Map Legend


Flown Route
Filed Route
Departure Airport
Arrival Airport
Navaid (VOR, NDB)
Fix

Horizontal Profiles

Position Reports

Time Latitude Longitude Heading Altitude Ground
Speed
16-Mar-18 09:12 38.659905 -121.395765 90 77ft 0kts
16-Mar-18 09:13 38.659905 -121.395765 90 77ft 0kts
16-Mar-18 09:14 38.659905 -121.395765 90 77ft 0kts
16-Mar-18 09:15 38.659905 -121.395765 90 77ft 0kts
16-Mar-18 09:16 38.659905 -121.395765 90 77ft 0kts
16-Mar-18 09:17 38.659905 -121.395765 90 77ft 0kts
16-Mar-18 09:18 38.659905 -121.395765 90 77ft 0kts
16-Mar-18 09:19 38.659905 -121.395765 90 77ft 0kts
16-Mar-18 09:20 38.659905 -121.395765 90 77ft 0kts
16-Mar-18 09:21 38.659905 -121.395765 90 77ft 0kts
16-Mar-18 09:22 38.659905 -121.395765 90 77ft 0kts
16-Mar-18 09:23 38.659905 -121.395765 90 77ft 0kts
16-Mar-18 09:24 38.659905 -121.395765 90 77ft 0kts
16-Mar-18 09:25 38.659905 -121.395765 90 77ft 0kts
16-Mar-18 09:26 38.659905 -121.395765 90 77ft 0kts
16-Mar-18 09:27 38.659905 -121.395765 90 77ft 0kts
16-Mar-18 09:28 38.659905 -121.395765 90 77ft 0kts
16-Mar-18 09:29 38.659905 -121.395765 90 77ft 0kts
16-Mar-18 09:30 38.659905 -121.395765 90 77ft 0kts
16-Mar-18 09:31 38.660538 -121.397976 315 77ft 12kts
16-Mar-18 09:32 38.663645 -121.398807 359 77ft 15kts
16-Mar-18 09:33 38.669042 -121.398803 0 77ft 19kts
16-Mar-18 09:34 38.674619 -121.398795 0 77ft 21kts
16-Mar-18 09:35 38.679538 -121.398810 358 77ft 19kts
16-Mar-18 09:36 38.681732 -121.400501 239 77ft 15kts
16-Mar-18 09:37 38.661894 -121.400734 182 601ft 134kts
16-Mar-18 09:38 38.638940 -121.354537 91 3028ft 202kts
16-Mar-18 09:39 38.632464 -121.278924 106 5813ft 226kts
16-Mar-18 09:40 38.613997 -121.202958 117 8836ft 223kts
16-Mar-18 09:41 38.591517 -121.126516 117 11432ft 234kts
16-Mar-18 09:42 38.568218 -121.045119 117 13644ft 255kts
16-Mar-18 09:43 38.543237 -120.956829 118 15762ft 271kts
16-Mar-18 09:44 38.516689 -120.863052 119 17588ft 289kts
16-Mar-18 09:45 38.488805 -120.764854 119 19393ft 298kts
16-Mar-18 09:46 38.459932 -120.663665 119 21036ft 309kts
16-Mar-18 09:47 38.429946 -120.558991 119 22535ft 320kts
16-Mar-18 09:48 38.398977 -120.451147 118 24055ft 323kts
16-Mar-18 09:49 38.368023 -120.343742 116 25514ft 323kts
16-Mar-18 09:50 38.336857 -120.236056 115 26804ft 322kts
16-Mar-18 09:51 38.306295 -120.130786 114 27994ft 314kts
16-Mar-18 09:52 38.276396 -120.028300 113 29093ft 304kts
16-Mar-18 09:53 38.247173 -119.928579 113 30259ft 297kts
16-Mar-18 09:54 38.218415 -119.830833 112 31268ft 293kts
16-Mar-18 09:55 38.189864 -119.734114 112 32146ft 291kts
16-Mar-18 09:56 38.161361 -119.637916 112 32976ft 288kts
16-Mar-18 09:57 38.133168 -119.543075 112 33721ft 285kts
16-Mar-18 09:58 38.104999 -119.448677 112 34344ft 285kts
16-Mar-18 09:59 38.076869 -119.354772 112 34819ft 289kts
16-Mar-18 10:00 38.047127 -119.255920 112 34825ft 310kts
16-Mar-18 10:01 38.015372 -119.150632 112 34824ft 327kts
16-Mar-18 10:02 37.982169 -119.040889 112 34824ft 340kts
16-Mar-18 10:03 37.947761 -118.927639 112 34835ft 349kts
16-Mar-18 10:04 37.912282 -118.811319 112 34834ft 356kts
16-Mar-18 10:05 37.876581 -118.694747 112 34834ft 356kts
16-Mar-18 10:06 37.840254 -118.576667 112 34832ft 361kts
16-Mar-18 10:07 37.809864 -118.478279 112 34829ft 359kts
16-Mar-18 10:08 37.767600 -118.342024 112 34827ft 357kts
16-Mar-18 10:09 37.737165 -118.244353 112 34825ft 357kts
16-Mar-18 10:10 37.694680 -118.108534 112 34828ft 357kts
16-Mar-18 10:11 37.658041 -117.991913 113 34836ft 358kts
16-Mar-18 10:12 37.627346 -117.894577 113 34838ft 357kts
16-Mar-18 10:13 37.590613 -117.778491 113 34857ft 356kts
16-Mar-18 10:14 37.553707 -117.662369 113 34865ft 356kts
16-Mar-18 10:15 37.516704 -117.546396 113 34874ft 357kts
16-Mar-18 10:16 37.479442 -117.430610 113 34876ft 357kts
16-Mar-18 10:17 37.441828 -117.314718 118 34884ft 356kts
16-Mar-18 10:18 37.373977 -117.229536 149 34895ft 344kts
16-Mar-18 10:19 37.295136 -117.161987 151 34902ft 343kts
16-Mar-18 10:20 37.215338 -117.095208 151 34933ft 344kts
16-Mar-18 10:21 37.135974 -117.028516 151 34926ft 343kts
16-Mar-18 10:22 37.056472 -116.961611 151 34940ft 345kts
16-Mar-18 10:23 36.976797 -116.894723 152 34952ft 345kts
16-Mar-18 10:24 36.897119 -116.828189 152 34958ft 345kts
16-Mar-18 10:25 36.816849 -116.761205 152 34961ft 345kts
16-Mar-18 10:26 36.758020 -116.663483 119 34961ft 366kts
16-Mar-18 10:27 36.713363 -116.547784 118 34953ft 372kts
16-Mar-18 10:28 36.667706 -116.432478 120 34943ft 370kts
16-Mar-18 10:29 36.620980 -116.318647 120 34944ft 369kts
16-Mar-18 10:30 36.573649 -116.205352 121 34939ft 366kts
16-Mar-18 10:31 36.526548 -116.093582 121 34937ft 365kts
16-Mar-18 10:32 36.479373 -115.982267 121 34937ft 365kts
16-Mar-18 10:33 36.432131 -115.871226 121 34937ft 363kts
16-Mar-18 10:34 36.384741 -115.760229 121 34938ft 364kts
16-Mar-18 10:35 36.337141 -115.649136 121 34950ft 364kts
16-Mar-18 10:36 36.289404 -115.538047 121 34951ft 364kts
16-Mar-18 10:37 36.241544 -115.427088 121 34973ft 366kts
16-Mar-18 10:38 36.193397 -115.315776 121 34977ft 365kts
16-Mar-18 10:39 36.145329 -115.205031 121 34987ft 366kts
16-Mar-18 10:40 36.097116 -115.094375 121 34983ft 365kts
16-Mar-18 10:41 36.048523 -114.983589 121 34990ft 366kts
16-Mar-18 10:42 36.000003 -114.873140 121 34992ft 366kts
16-Mar-18 10:43 35.962529 -114.755986 110 34994ft 369kts
16-Mar-18 10:44 35.931144 -114.635012 109 34993ft 369kts
16-Mar-18 10:45 35.898986 -114.514825 110 34997ft 369kts
16-Mar-18 10:46 35.865650 -114.393705 111 34979ft 376kts
16-Mar-18 10:47 35.831623 -114.271651 111 35003ft 374kts
16-Mar-18 10:48 35.797728 -114.150889 111 35003ft 374kts
16-Mar-18 10:49 35.763367 -114.029173 111 35009ft 376kts
16-Mar-18 10:50 35.729027 -113.908034 111 35006ft 375kts
16-Mar-18 10:51 35.694545 -113.787055 111 35012ft 373kts
16-Mar-18 10:52 35.660041 -113.667024 111 35013ft 372kts
16-Mar-18 10:53 35.625070 -113.545564 111 34014ft 389kts
16-Mar-18 10:54 35.592084 -113.415900 108 32017ft 401kts
16-Mar-18 10:55 35.559945 -113.283811 109 30142ft 404kts
16-Mar-18 10:56 35.527479 -113.152065 110 28348ft 403kts
16-Mar-18 10:57 35.494690 -113.020595 110 26545ft 400kts
16-Mar-18 10:58 35.462129 -112.891075 110 24749ft 395kts
16-Mar-18 10:59 35.429797 -112.763220 110 22954ft 391kts
16-Mar-18 11:00 35.397432 -112.636416 110 21151ft 386kts
16-Mar-18 11:01 35.365725 -112.512853 110 19353ft 370kts
16-Mar-18 11:02 35.335530 -112.395404 110 17548ft 353kts
16-Mar-18 11:03 35.306998 -112.283736 110 17006ft 337kts
16-Mar-18 11:04 35.278661 -112.174582 110 17009ft 337kts
16-Mar-18 11:05 35.250108 -112.065051 110 17009ft 337kts
16-Mar-18 11:06 35.221633 -111.956015 110 17009ft 337kts
16-Mar-18 11:07 35.193298 -111.846611 109 16328ft 334kts
16-Mar-18 11:08 35.166762 -111.740528 109 14332ft 319kts
16-Mar-18 11:09 35.141627 -111.640350 109 12333ft 297kts
16-Mar-18 11:10 35.155318 -111.546982 61 10482ft 274kts
16-Mar-18 11:11 35.185714 -111.470760 59 10052ft 233kts
16-Mar-18 11:12 35.227879 -111.463465 288 10015ft 144kts
16-Mar-18 11:13 35.238197 -111.508648 280 10000ft 133kts
16-Mar-18 11:14 35.233701 -111.554872 252 9503ft 141kts
16-Mar-18 11:15 35.207374 -111.590710 233 8911ft 132kts
16-Mar-18 11:16 35.185856 -111.620009 229 8162ft 91kts
16-Mar-18 11:17 35.167241 -111.640124 229 7595ft 91kts
16-Mar-18 11:18 35.148653 -111.660317 229 7116ft 89kts
16-Mar-18 11:19 35.138769 -111.671628 307 7013ft 6kts
16-Mar-18 11:20 35.136455 -111.674420 222 7013ft 17kts
16-Mar-18 11:21 35.135855 -111.676494 309 7013ft 0kts
16-Mar-18 11:22 35.135855 -111.676495 309 7013ft 0kts
16-Mar-18 11:23 35.135855 -111.676495 309 7013ft 0kts

Navigation Log

Ident Type
Flight plan parsing failed, navigation log unavailable